Time;durP1;ratioP1;P1;durP2;ratioP2;P2;SDS_P1;SDS_P2;PMS_P1;PMS_P2;Temp;Humidity;BMP_temperature;BMP_pressure;BME280_temperature;BME280_humidity;BME280_pressure;Samples;Min_cycle;Max_cycle;Signal;HPM_P1;HPM_P2
2022/04/18 00:00:02;;;;;;;2.13;1.70;;;10.90;88.40;;;;;;7386303;19;20134;-77
2022/04/18 00:02:28;;;;;;;4.13;1.60;;;10.70;89.20;;;;;;7385657;19;20150;-76
2022/04/18 00:04:53;;;;;;;2.33;1.37;;;10.40;90.10;;;;;;7386033;19;20123;-77
2022/04/18 00:07:19;;;;;;;1.47;1.37;;;10.40;90.20;;;;;;7384944;19;20154;-76
2022/04/18 00:09:45;;;;;;;1.60;1.17;;;10.40;90.40;;;;;;7392257;19;20123;-77
2022/04/18 00:12:11;;;;;;;2.10;1.40;;;10.40;90.30;;;;;;7385215;19;20142;-76
2022/04/18 00:14:37;;;;;;;1.97;1.33;;;10.10;90.70;;;;;;7387879;19;20176;-78
2022/04/18 00:17:03;;;;;;;2.00;1.30;;;10.10;90.90;;;;;;7385325;19;20134;-78
2022/04/18 00:19:29;;;;;;;2.23;1.47;;;10.00;91.00;;;;;;7393454;19;20150;-77
2022/04/18 00:21:55;;;;;;;2.90;1.63;;;10.10;91.20;;;;;;7401938;19;20130;-78
2022/04/18 00:24:21;;;;;;;2.03;1.60;;;10.20;91.30;;;;;;7389716;19;20131;-76
2022/04/18 00:26:47;;;;;;;2.60;1.57;;;10.40;91.20;;;;;;7385291;19;20489;-78
2022/04/18 00:29:14;;;;;;;2.70;1.87;;;10.60;91.30;;;;;;7388790;19;20158;-76
2022/04/18 00:31:40;;;;;;;4.60;1.80;;;10.80;91.20;;;;;;7393171;19;20137;-76
2022/04/18 00:34:06;;;;;;;2.30;1.50;;;10.90;91.10;;;;;;7394409;19;20135;-77
2022/04/18 00:36:33;;;;;;;3.80;1.80;;;10.90;91.20;;;;;;7395855;19;20612;-77
2022/04/18 00:38:59;;;;;;;3.70;2.00;;;10.80;91.50;;;;;;7394804;19;20201;-76
2022/04/18 00:41:25;;;;;;;3.60;2.10;;;10.50;91.80;;;;;;7396615;19;20598;-76
2022/04/18 00:43:52;;;;;;;2.20;1.70;;;10.70;91.80;;;;;;7406514;19;20143;-77
2022/04/18 00:46:19;;;;;;;2.90;2.23;;;10.90;91.80;;;;;;7397707;19;20138;-76
2022/04/18 00:48:46;;;;;;;3.23;1.90;;;11.00;91.50;;;;;;7394118;19;20127;-76
2022/04/18 00:51:14;;;;;;;3.13;2.23;;;11.00;91.50;;;;;;7394179;19;20131;-76
2022/04/18 00:53:41;;;;;;;2.93;2.20;;;10.90;92.00;;;;;;7395331;19;20146;-76
2022/04/18 00:56:09;;;;;;;4.30;2.00;;;10.60;92.40;;;;;;7392077;19;20142;-76
2022/04/18 00:58:36;;;;;;;3.63;2.20;;;10.50;92.80;;;;;;7392258;19;20588;-76
2022/04/18 01:01:03;;;;;;;3.03;1.70;;;10.60;92.60;;;;;;7395968;19;20127;-75
2022/04/18 01:03:30;;;;;;;3.37;2.10;;;10.70;92.40;;;;;;7403458;19;20163;-75
2022/04/18 01:06:00;;;;;;;3.00;2.00;;;10.30;92.80;;;;;;7394105;19;20154;-76
2022/04/18 01:08:30;;;;;;;3.13;2.10;;;10.20;93.40;;;;;;7394011;19;20149;-76
2022/04/18 01:10:55;;;;;;;3.77;1.80;;;10.20;93.40;;;;;;7393528;19;21073;-76
2022/04/18 01:13:22;;;;;;;2.73;2.03;;;10.00;93.40;;;;;;7393924;19;20135;-76
2022/04/18 01:15:52;;;;;;;2.83;2.00;;;10.10;93.70;;;;;;7396804;19;20134;-76
2022/04/18 01:18:18;;;;;;;5.43;2.30;;;10.10;93.40;;;;;;7391739;19;20159;-75
2022/04/18 01:20:44;;;;;;;3.40;2.20;;;9.80;93.90;;;;;;7392321;19;20457;-76
2022/04/18 01:23:10;;;;;;;3.83;2.10;;;10.00;93.80;;;;;;7391536;19;20193;-75
2022/04/18 01:31:05;;;;;;;5.73;2.30;;;10.50;93.20;;;;;;7393387;19;20507;-76
2022/04/18 01:33:31;;;;;;;2.90;2.00;;;10.60;92.80;;;;;;7392780;19;20157;-75
2022/04/18 01:35:57;;;;;;;3.30;1.93;;;10.70;92.40;;;;;;7391305;19;20147;-76
2022/04/18 01:38:23;;;;;;;4.97;2.50;;;10.70;92.40;;;;;;7390200;19;20151;-75
2022/04/18 01:40:49;;;;;;;3.50;2.00;;;10.60;92.40;;;;;;7390233;19;20150;-76
2022/04/18 01:43:15;;;;;;;4.10;2.53;;;10.50;92.70;;;;;;7390780;19;20134;-76
2022/04/18 01:45:40;;;;;;;3.33;2.10;;;10.50;92.80;;;;;;7390865;19;20550;-76
2022/04/18 01:48:06;;;;;;;3.57;1.73;;;10.30;93.10;;;;;;7397797;19;20123;-76
2022/04/18 01:50:33;;;;;;;3.17;1.80;;;10.30;93.30;;;;;;7404351;19;20139;-76
2022/04/18 01:52:59;;;;;;;2.67;1.83;;;10.30;93.40;;;;;;7392870;19;20203;-76
2022/04/18 01:55:25;;;;;;;3.07;2.00;;;10.40;93.40;;;;;;7392002;19;20159;-76
2022/04/18 01:57:51;;;;;;;3.77;2.10;;;10.40;93.30;;;;;;7387610;19;20568;-76
2022/04/18 02:00:16;;;;;;;5.70;2.23;;;10.30;93.30;;;;;;7392669;19;20139;-76
2022/04/18 02:02:42;;;;;;;2.93;2.00;;;10.20;93.50;;;;;;7390541;19;20611;-76
2022/04/18 02:05:09;;;;;;;3.23;1.90;;;10.10;93.70;;;;;;7390287;19;20610;-76
2022/04/18 02:07:35;;;;;;;2.33;1.90;;;9.80;94.40;;;;;;7391165;19;20130;-76
2022/04/18 02:10:02;;;;;;;3.83;1.90;;;9.90;94.40;;;;;;7399102;19;20139;-76
2022/04/18 02:12:28;;;;;;;4.67;2.37;;;9.90;94.70;;;;;;7406562;19;20255;-76
2022/04/18 02:14:54;;;;;;;3.63;1.93;;;9.90;94.90;;;;;;7394856;19;20150;-76
2022/04/18 02:17:20;;;;;;;3.03;1.80;;;10.00;94.80;;;;;;7388218;19;20604;-76
2022/04/18 02:19:46;;;;;;;2.30;1.77;;;9.80;95.00;;;;;;7395376;19;20483;-77
2022/04/18 02:22:12;;;;;;;4.87;2.10;;;9.70;95.20;;;;;;7389222;19;20137;-76
2022/04/18 02:24:39;;;;;;;3.67;2.10;;;9.70;95.40;;;;;;7391268;19;20130;-76
2022/04/18 02:27:06;;;;;;;2.77;1.90;;;9.90;95.40;;;;;;7390440;19;20528;-76
2022/04/18 02:29:33;;;;;;;3.13;2.10;;;9.80;95.40;;;;;;7387439;19;20153;-76
2022/04/18 02:34:43;;;;;;;3.70;2.10;;;9.60;95.40;;;;;;7414568;19;20126;-75
2022/04/18 02:37:10;;;;;;;3.37;1.90;;;9.40;95.50;;;;;;7393953;19;20141;-76
2022/04/18 02:39:36;;;;;;;3.63;1.97;;;9.20;96.00;;;;;;7389095;19;20801;-76
2022/04/18 02:42:03;;;;;;;2.43;1.80;;;9.30;96.10;;;;;;7387726;19;20641;-75
2022/04/18 02:44:28;;;;;;;1.90;1.70;;;9.50;96.00;;;;;;7392377;19;20135;-75
2022/04/18 02:46:55;;;;;;;3.10;2.17;;;9.50;95.60;;;;;;7388264;19;20154;-77
2022/04/18 02:49:21;;;;;;;1.87;1.60;;;9.30;95.90;;;;;;7388229;19;20149;-76
2022/04/18 02:51:47;;;;;;;1.83;1.60;;;9.40;95.80;;;;;;7388363;19;20122;-77
2022/04/18 02:54:12;;;;;;;2.73;1.70;;;9.30;95.50;;;;;;7392831;19;20130;-77
2022/04/18 02:56:38;;;;;;;3.47;1.70;;;9.20;95.80;;;;;;7396956;19;20139;-78
2022/04/18 02:59:04;;;;;;;2.53;1.77;;;9.40;95.70;;;;;;7388249;19;20146;-76
2022/04/18 03:01:30;;;;;;;2.60;1.80;;;8.50;96.60;;;;;;7391760;19;20569;-77
2022/04/18 03:03:55;;;;;;;2.70;1.90;;;8.60;97.20;;;;;;7390704;19;20131;-77
2022/04/18 03:06:21;;;;;;;2.47;1.80;;;8.90;96.60;;;;;;7387237;19;20127;-76
2022/04/18 03:08:47;;;;;;;2.43;1.50;;;9.00;96.70;;;;;;7393736;19;20525;-76
2022/04/18 03:11:13;;;;;;;2.80;1.87;;;9.20;96.40;;;;;;7389506;19;20574;-77
2022/04/18 03:13:46;;;;;;;1.90;1.40;;;9.40;95.70;;;;;;7388795;19;20164;-77
2022/04/18 03:16:14;;;;;;;2.93;1.70;;;9.40;95.50;;;;;;7387430;19;20160;-77
2022/04/18 03:18:40;;;;;;;2.97;1.67;;;9.40;95.30;;;;;;7394363;19;20621;-77
2022/04/18 03:21:06;;;;;;;2.33;1.80;;;9.40;95.20;;;;;;7399241;19;20222;-76
2022/04/18 03:23:32;;;;;;;4.47;1.57;;;9.00;96.10;;;;;;7391482;19;20130;-77
2022/04/18 03:25:58;;;;;;;2.77;1.60;;;8.90;96.20;;;;;;7388398;19;20910;-77
2022/04/18 03:28:25;;;;;;;2.20;1.63;;;8.30;97.00;;;;;;7390788;19;20154;-77
2022/04/18 03:30:52;;;;;;;2.93;2.00;;;8.20;98.00;;;;;;7387413;19;20151;-77
2022/04/18 03:33:18;;;;;;;2.47;1.73;;;8.50;97.90;;;;;;7390299;19;20139;-76
2022/04/18 03:41:14;;;;;;;2.63;1.77;;;8.40;97.80;;;;;;7399495;19;20180;-76
2022/04/18 03:43:40;;;;;;;2.97;1.90;;;8.60;98.00;;;;;;7394753;19;20126;-76
2022/04/18 03:46:05;;;;;;;3.07;2.10;;;8.70;97.50;;;;;;7386573;19;20135;-77
2022/04/18 03:48:31;;;;;;;3.10;2.20;;;7.90;98.50;;;;;;7386411;19;20142;-77
2022/04/18 03:50:57;;;;;;;4.17;2.00;;;8.00;99.00;;;;;;7386697;19;20134;-76
2022/04/18 03:53:23;;;;;;;2.23;1.47;;;8.40;99.00;;;;;;7388436;19;21135;-77
2022/04/18 03:55:49;;;;;;;2.40;1.80;;;8.30;99.00;;;;;;7387867;19;20123;-76
2022/04/18 03:58:15;;;;;;;3.23;2.03;;;7.80;99.10;;;;;;7386471;19;20617;-76
2022/04/18 04:00:42;;;;;;;2.77;1.80;;;7.80;99.90;;;;;;7387846;19;20134;-76
2022/04/18 04:03:09;;;;;;;2.83;1.50;;;8.20;99.90;;;;;;7391304;19;20142;-77
2022/04/18 04:05:35;;;;;;;3.03;1.93;;;8.50;99.30;;;;;;7400349;19;20454;-76
2022/04/18 04:08:01;;;;;;;2.77;1.90;;;8.60;99.00;;;;;;7394931;19;20143;-77
2022/04/18 04:10:26;;;;;;;2.77;1.80;;;8.90;98.70;;;;;;7387530;19;20130;-77
2022/04/18 04:12:52;;;;;;;4.97;2.00;;;9.10;98.90;;;;;;7386725;19;20606;-77
2022/04/18 04:15:18;;;;;;;5.03;2.03;;;9.10;98.60;;;;;;7385841;19;20134;-77
2022/04/18 04:17:44;;;;;;;3.77;2.40;;;9.20;98.70;;;;;;7384775;19;20156;-76
2022/04/18 04:20:10;;;;;;;2.77;2.10;;;9.10;98.70;;;;;;7385813;19;20134;-76
2022/04/18 04:22:36;;;;;;;2.10;1.90;;;8.90;99.00;;;;;;7386253;19;20140;-76
2022/04/18 04:25:03;;;;;;;5.10;1.70;;;8.90;98.60;;;;;;7388750;19;20593;-76
2022/04/18 04:27:31;;;;;;;2.30;1.63;;;8.80;98.20;;;;;;7394367;19;20501;-76
2022/04/18 04:29:57;;;;;;;1.90;1.50;;;8.80;97.90;;;;;;7388442;19;20142;-77
2022/04/18 04:32:24;;;;;;;4.63;1.77;;;8.70;97.80;;;;;;7385649;19;20575;-77
2022/04/18 04:34:51;;;;;;;1.83;1.43;;;8.70;98.00;;;;;;7385053;19;21028;-77
2022/04/18 04:37:17;;;;;;;3.20;2.03;;;8.60;98.10;;;;;;7387229;19;20725;-77
2022/04/18 04:39:43;;;;;;;2.57;1.97;;;8.70;98.30;;;;;;7387780;19;20162;-77
2022/04/18 04:42:09;;;;;;;2.53;1.87;;;8.80;97.90;;;;;;7383561;19;20147;-76
2022/04/18 04:44:35;;;;;;;2.93;1.87;;;8.90;97.80;;;;;;7396894;19;20139;-77
2022/04/18 04:47:01;;;;;;;3.20;2.00;;;8.50;98.10;;;;;;7392413;19;20137;-77
2022/04/18 04:49:27;;;;;;;2.73;1.50;;;8.70;98.40;;;;;;7395180;19;20154;-77
2022/04/18 04:51:53;;;;;;;1.90;1.60;;;8.80;98.10;;;;;;7391699;19;20147;-77
2022/04/18 04:54:18;;;;;;;4.33;1.90;;;8.80;98.10;;;;;;7388270;19;20154;-78
2022/04/18 04:56:44;;;;;;;2.67;1.80;;;8.70;98.20;;;;;;7387616;19;20143;-77
2022/04/18 04:59:10;;;;;;;2.37;1.93;;;8.70;98.30;;;;;;7390270;19;20150;-77
2022/04/18 05:01:36;;;;;;;3.57;1.80;;;8.70;98.20;;;;;;7389156;19;20145;-77
2022/04/18 05:04:01;;;;;;;4.47;2.40;;;9.00;98.10;;;;;;7387719;19;20637;-77
2022/04/18 05:06:27;;;;;;;3.30;2.20;;;8.70;97.60;;;;;;7386843;19;20155;-78
2022/04/18 05:08:54;;;;;;;4.23;2.50;;;8.50;98.20;;;;;;7390119;19;20138;-78
2022/04/18 05:11:20;;;;;;;4.50;2.30;;;8.70;97.90;;;;;;7399624;19;20154;-77
2022/04/18 05:13:45;;;;;;;2.63;1.73;;;8.70;98.00;;;;;;7396239;19;20147;-78
2022/04/18 05:16:11;;;;;;;3.23;1.80;;;8.70;98.10;;;;;;7396121;19;20139;-77
2022/04/18 05:18:37;;;;;;;2.53;2.00;;;8.70;98.10;;;;;;7394101;19;20667;-76
2022/04/18 05:21:03;;;;;;;2.90;2.10;;;8.80;98.00;;;;;;7394554;19;20143;-77
2022/04/18 05:23:29;;;;;;;2.67;1.87;;;8.60;98.00;;;;;;7394644;19;20154;-76
2022/04/18 05:25:55;;;;;;;2.70;2.17;;;8.40;98.70;;;;;;7392650;19;20134;-78
2022/04/18 05:28:20;;;;;;;2.73;2.20;;;8.70;98.70;;;;;;7396442;19;20154;-79
2022/04/18 05:30:46;;;;;;;2.77;2.00;;;8.90;98.70;;;;;;7396302;19;20142;-77
2022/04/18 05:33:12;;;;;;;2.40;2.20;;;8.90;98.80;;;;;;7399658;19;20139;-77
2022/04/18 05:35:38;;;;;;;3.97;2.13;;;9.00;99.10;;;;;;7398149;19;20153;-76
2022/04/18 05:38:04;;;;;;;3.43;2.47;;;9.00;99.10;;;;;;7396902;19;20142;-77
2022/04/18 05:40:29;;;;;;;2.97;2.67;;;8.90;99.40;;;;;;7395903;19;20156;-76
2022/04/18 05:42:55;;;;;;;3.63;2.50;;;8.90;99.60;;;;;;7391390;19;20158;-77
2022/04/18 05:45:21;;;;;;;3.20;2.50;;;8.90;99.70;;;;;;7393265;19;20604;-77
2022/04/18 05:47:47;;;;;;;6.17;2.70;;;8.90;99.60;;;;;;7392803;19;20143;-76
2022/04/18 05:50:13;;;;;;;4.83;2.70;;;9.00;99.60;;;;;;7392813;19;20577;-77
2022/04/18 05:52:39;;;;;;;4.07;2.63;;;8.90;99.70;;;;;;7396334;19;20135;-77
2022/04/18 05:55:05;;;;;;;5.47;2.30;;;9.00;99.40;;;;;;7404930;19;20493;-76
2022/04/18 05:57:30;;;;;;;4.20;2.57;;;9.00;99.50;;;;;;7393262;19;20134;-75
2022/04/18 05:59:56;;;;;;;2.73;2.03;;;9.10;99.50;;;;;;7393300;19;20619;-76
2022/04/18 06:02:22;;;;;;;4.27;2.67;;;9.10;99.70;;;;;;7395143;19;20146;-76
2022/04/18 06:04:48;;;;;;;3.30;2.70;;;9.10;99.40;;;;;;7394737;19;20134;-77
2022/04/18 06:07:14;;;;;;;2.80;2.00;;;9.10;99.50;;;;;;7392753;19;20250;-76
2022/04/18 06:09:39;;;;;;;3.27;2.13;;;9.10;99.50;;;;;;7394067;19;20142;-76
2022/04/18 06:12:05;;;;;;;4.40;2.43;;;9.10;99.50;;;;;;7401223;19;20186;-77
2022/04/18 06:14:31;;;;;;;2.90;2.20;;;9.10;99.40;;;;;;7411545;19;20210;-74
2022/04/18 06:16:57;;;;;;;3.23;2.20;;;9.00;99.20;;;;;;7395790;19;20154;-76
2022/04/18 06:19:23;;;;;;;4.37;2.60;;;9.10;99.10;;;;;;7398730;19;20130;-76
2022/04/18 06:21:48;;;;;;;3.03;2.20;;;9.10;99.20;;;;;;7392662;19;20218;-77
2022/04/18 06:24:15;;;;;;;3.63;2.50;;;9.10;99.10;;;;;;7391968;19;20143;-76
2022/04/18 06:26:40;;;;;;;3.03;2.50;;;9.10;99.40;;;;;;7389883;19;20180;-78
2022/04/18 06:29:06;;;;;;;3.30;2.40;;;9.30;99.00;;;;;;7391089;19;20303;-76
2022/04/18 06:31:32;;;;;;;2.83;2.40;;;9.20;98.90;;;;;;7392427;19;20131;-77
2022/04/18 06:33:58;;;;;;;4.83;2.70;;;9.20;98.90;;;;;;7392355;19;20154;-76
2022/04/18 06:36:24;;;;;;;3.87;2.60;;;9.30;98.90;;;;;;7401084;19;20164;-77
2022/04/18 06:38:51;;;;;;;5.47;2.60;;;9.40;98.60;;;;;;7398114;19;20130;-76
2022/04/18 06:41:16;;;;;;;2.87;2.50;;;9.40;98.60;;;;;;7395002;19;20613;-76
2022/04/18 06:43:43;;;;;;;4.10;2.30;;;9.50;98.80;;;;;;7396069;19;20198;-77
2022/04/18 06:46:09;;;;;;;3.50;2.57;;;9.70;98.50;;;;;;7391649;19;20733;-76
2022/04/18 06:48:35;;;;;;;3.57;2.60;;;9.70;98.20;;;;;;7392761;19;20134;-75
2022/04/18 06:51:01;;;;;;;4.00;2.70;;;9.70;98.10;;;;;;7392206;19;20135;-76
2022/04/18 06:53:26;;;;;;;3.20;2.40;;;9.90;97.80;;;;;;7392732;19;20375;-76
2022/04/18 06:58:37;;;;;;;5.87;2.90;;;9.90;97.40;;;;;;7413788;19;20150;-76
2022/04/18 07:01:02;;;;;;;3.90;2.57;;;10.00;97.20;;;;;;7391383;19;20621;-75
2022/04/18 07:03:28;;;;;;;4.57;2.70;;;10.20;97.10;;;;;;7399113;19;20893;-77
2022/04/18 07:05:55;;;;;;;6.03;2.50;;;10.40;96.60;;;;;;7390038;19;20127;-77
2022/04/18 07:08:21;;;;;;;4.33;2.80;;;10.70;96.20;;;;;;7393044;19;20157;-78
2022/04/18 07:10:47;;;;;;;3.40;2.43;;;11.20;95.40;;;;;;7391717;19;20183;-77
2022/04/18 07:13:13;;;;;;;4.27;2.20;;;11.70;94.80;;;;;;7391810;19;20143;-77
2022/04/18 07:15:39;;;;;;;4.17;2.27;;;12.20;93.80;;;;;;7391231;19;20135;-76
2022/04/18 07:18:06;;;;;;;2.53;2.30;;;12.50;93.10;;;;;;7416963;19;20135;-76
2022/04/18 07:20:31;;;;;;;3.13;2.37;;;12.60;92.40;;;;;;7391699;19;20638;-76
2022/04/18 07:22:57;;;;;;;2.67;2.03;;;12.80;92.00;;;;;;7391910;19;20135;-76
2022/04/18 07:25:23;;;;;;;4.63;2.67;;;13.00;91.70;;;;;;7390997;19;20137;-76
2022/04/18 07:27:49;;;;;;;2.97;2.23;;;13.40;91.10;;;;;;7390545;19;20554;-76
2022/04/18 07:30:16;;;;;;;2.83;2.17;;;14.00;90.90;;;;;;7389773;19;20235;-75
2022/04/18 07:32:43;;;;;;;2.80;2.00;;;14.00;90.10;;;;;;7391741;19;20126;-77
2022/04/18 07:35:10;;;;;;;3.50;2.00;;;14.20;89.70;;;;;;7401792;19;20138;-76
2022/04/18 07:37:36;;;;;;;5.13;2.50;;;14.20;88.90;;;;;;7396796;19;20131;-78
2022/04/18 07:40:03;;;;;;;4.03;2.40;;;14.40;88.20;;;;;;7392570;19;20138;-77
2022/04/18 07:42:29;;;;;;;3.43;2.50;;;14.40;87.90;;;;;;7393581;19;20384;-76
2022/04/18 07:44:54;;;;;;;2.60;1.90;;;14.20;87.90;;;;;;7392309;19;20135;-78
2022/04/18 07:47:20;;;;;;;2.77;2.40;;;14.10;88.00;;;;;;7385913;19;20261;-79
2022/04/18 07:49:48;;;;;;;3.17;2.10;;;14.20;88.00;;;;;;7388172;19;20150;-76
2022/04/18 07:52:14;;;;;;;3.35;1.92;;;14.40;87.70;;;;;;7390375;19;20714;-78
2022/04/18 07:54:39;;;;;;;3.43;2.33;;;14.50;86.70;;;;;;7394391;19;20131;-77
2022/04/18 07:57:05;;;;;;;4.23;2.37;;;14.70;86.60;;;;;;7390504;19;20144;-77
2022/04/18 07:59:32;;;;;;;3.13;2.17;;;15.00;85.60;;;;;;7386619;19;20450;-78
2022/04/18 08:01:57;;;;;;;4.37;2.60;;;15.00;85.10;;;;;;7390304;19;20430;-77
2022/04/18 08:04:23;;;;;;;2.53;2.17;;;14.90;85.10;;;;;;7387757;19;20122;-80
2022/04/18 08:06:49;;;;;;;2.40;2.00;;;15.00;85.10;;;;;;7385508;19;20135;-78
2022/04/18 08:09:15;;;;;;;3.03;2.33;;;15.10;84.50;;;;;;7386318;19;20154;-78
2022/04/18 08:11:41;;;;;;;3.90;2.00;;;15.20;83.90;;;;;;7387136;19;21145;-77
2022/04/18 08:14:07;;;;;;;3.10;2.30;;;15.20;83.90;;;;;;7387784;19;20141;-72
2022/04/18 08:16:32;;;;;;;3.10;2.37;;;15.00;83.70;;;;;;7403873;19;20490;-72
2022/04/18 08:18:58;;;;;;;3.53;2.03;;;14.90;84.10;;;;;;7394271;19;20610;-73
2022/04/18 08:21:24;;;;;;;2.10;1.90;;;14.50;84.90;;;;;;7386617;19;20134;-74
2022/04/18 08:23:53;;;;;;;3.30;2.10;;;14.40;84.90;;;;;;7389795;19;20134;-74
2022/04/18 08:26:37;;;;;;;5.00;2.00;;;14.30;85.30;;;;;;7384325;19;20133;-72
2022/04/18 08:29:03;;;;;;;3.33;2.03;;;14.30;85.40;;;;;;7389028;19;20210;-71
2022/04/18 08:31:29;;;;;;;4.40;2.47;;;14.40;84.90;;;;;;7385850;19;20134;-74
2022/04/18 08:33:55;;;;;;;3.13;2.13;;;14.40;84.50;;;;;;7387158;19;20142;-74
2022/04/18 08:36:20;;;;;;;2.63;2.10;;;14.40;84.80;;;;;;7393303;19;20135;-75
2022/04/18 08:38:48;;;;;;;3.50;2.00;;;14.40;84.90;;;;;;7393668;19;20593;-72
2022/04/18 08:41:20;;;;;;;2.77;1.80;;;14.40;85.30;;;;;;7388467;19;20222;-75
2022/04/18 08:43:46;;;;;;;3.10;2.27;;;14.50;85.10;;;;;;7387741;19;20135;-72
2022/04/18 08:46:12;;;;;;;2.53;1.90;;;14.50;84.90;;;;;;7389381;19;20164;-73
2022/04/18 08:54:13;;;;;;;2.78;2.20;;;14.50;85.00;;;;;;7397084;19;20481;-70
2022/04/18 08:56:39;;;;;;;2.70;2.10;;;14.60;84.50;;;;;;7395251;19;20154;-72
2022/04/18 08:59:05;;;;;;;3.40;2.37;;;14.50;84.10;;;;;;7404560;19;20127;-75
2022/04/18 09:01:30;;;;;;;2.42;1.85;;;14.60;84.20;;;;;;7409982;19;20142;-73
2022/04/18 09:03:58;;;;;;;4.85;3.13;;;14.60;84.20;;;;;;7393668;19;20170;-72
2022/04/18 09:06:25;;;;;;;5.20;2.40;;;14.60;84.40;;;;;;7394097;19;20134;-75
2022/04/18 09:08:57;;;;;;;3.17;2.20;;;14.70;83.90;;;;;;7397288;19;20188;-74
2022/04/18 09:11:32;;;;;;;3.30;1.85;;;14.70;83.60;;;;;;7396193;19;20140;-74
2022/04/18 09:14:10;;;;;;;2.15;1.77;;;14.70;83.30;;;;;;7395453;19;20813;-73
2022/04/18 09:16:37;;;;;;;2.93;2.13;;;14.80;83.50;;;;;;7395561;19;20548;-73
2022/04/18 09:19:10;;;;;;;4.20;2.17;;;14.90;82.90;;;;;;7394287;19;20150;-74
2022/04/18 09:21:59;;;;;;;2.00;1.80;;;14.90;83.20;;;;;;7404569;19;20142;-75
2022/04/18 09:24:34;;;;;;;2.10;1.70;;;15.00;82.70;;;;;;7394814;19;20143;-76
2022/04/18 09:27:27;;;;;;;2.75;2.05;;;15.20;82.70;;;;;;7394697;19;20137;-75
2022/04/18 09:30:23;;;;;;;2.13;1.70;;;15.20;82.30;;;;;;7392275;19;20154;-75
2022/04/18 09:33:15;;;;;;;3.53;2.15;;;15.20;82.70;;;;;;7392459;19;20191;-71
2022/04/18 09:35:41;;;;;;;2.70;1.77;;;15.60;82.10;;;;;;7391936;19;20239;-71
2022/04/18 09:38:08;;;;;;;2.35;2.00;;;15.80;81.90;;;;;;7394808;19;20174;-72
2022/04/18 09:40:37;;;;;;;4.13;2.05;;;16.00;81.80;;;;;;7394308;19;20158;-73
2022/04/18 09:43:03;;;;;;;3.80;1.95;;;16.10;80.70;;;;;;7404315;19;20180;-72
2022/04/18 09:45:29;;;;;;;2.40;1.83;;;16.30;80.90;;;;;;7391584;19;20146;-75
2022/04/18 09:47:57;;;;;;;2.60;1.90;;;16.30;79.20;;;;;;7392956;19;20142;-72
2022/04/18 09:53:34;;;;;;;2.55;2.00;;;16.20;79.40;;;;;;7398873;19;20149;-72
2022/04/18 09:56:00;;;;;;;1.67;1.40;;;16.00;77.80;;;;;;7392914;19;20135;-71
2022/04/18 09:58:26;;;;;;;3.17;2.00;;;16.00;77.80;;;;;;7395965;19;20139;-71
2022/04/18 10:00:55;;;;;;;2.47;1.70;;;16.10;76.40;;;;;;7396187;19;20145;-77
2022/04/18 10:03:21;;;;;;;3.25;2.30;;;16.00;76.80;;;;;;7404273;19;20184;-72
2022/04/18 10:05:49;;;;;;;3.47;1.67;;;16.00;77.60;;;;;;7393716;19;20495;-74
2022/04/18 10:08:15;;;;;;;2.10;1.67;;;16.10;77.50;;;;;;7394805;19;20216;-71
2022/04/18 10:10:41;;;;;;;4.15;2.08;;;16.10;77.80;;;;;;7394749;19;20158;-76
2022/04/18 10:13:08;;;;;;;2.38;2.17;;;16.00;77.00;;;;;;7394417;19;20145;-77
2022/04/18 10:15:35;;;;;;;2.33;1.70;;;15.90;76.80;;;;;;7392240;19;20134;-77
2022/04/18 10:18:03;;;;;;;4.32;2.15;;;15.80;77.40;;;;;;7392101;19;20143;-76
2022/04/18 10:20:49;;;;;;;3.92;2.03;;;15.80;77.50;;;;;;7386921;19;20150;-73
2022/04/18 10:23:53;;;;;;;2.22;1.73;;;15.80;77.40;;;;;;7400299;19;20154;-74
2022/04/18 10:26:24;;;;;;;2.90;1.88;;;15.90;77.30;;;;;;7390785;19;20139;-72
2022/04/18 10:28:53;;;;;;;2.70;1.88;;;15.90;77.10;;;;;;7390767;19;20158;-72
2022/04/18 10:31:24;;;;;;;2.90;2.08;;;16.00;77.40;;;;;;7391300;19;20137;-73
2022/04/18 10:33:50;;;;;;;4.32;2.50;;;16.10;76.60;;;;;;7393321;19;20689;-73
2022/04/18 10:36:28;;;;;;;3.00;1.90;;;16.00;76.50;;;;;;7390694;19;20134;-74
2022/04/18 10:39:00;;;;;;;2.78;2.15;;;15.80;76.70;;;;;;7392851;19;20139;-76
2022/04/18 10:41:42;;;;;;;1.75;1.42;;;15.80;76.20;;;;;;7390829;19;20150;-75
2022/04/18 10:44:09;;;;;;;3.08;1.75;;;15.90;77.00;;;;;;7397639;19;20256;-74
2022/04/18 10:46:39;;;;;;;2.42;1.70;;;16.00;76.80;;;;;;7390239;19;20167;-70
2022/04/18 10:49:16;;;;;;;2.40;1.67;;;16.10;76.30;;;;;;7390982;19;20135;-75
2022/04/18 10:51:44;;;;;;;4.10;2.13;;;16.10;77.00;;;;;;7390807;19;20186;-73
2022/04/18 10:54:36;;;;;;;2.95;2.22;;;16.30;76.50;;;;;;7392466;19;20131;-74
2022/04/18 10:57:12;;;;;;;3.50;2.10;;;16.30;76.10;;;;;;7389427;19;20512;-75
2022/04/18 10:59:45;;;;;;;2.15;1.83;;;16.30;75.50;;;;;;7391880;19;20153;-75
2022/04/18 11:02:38;;;;;;;1.98;1.38;;;16.20;76.00;;;;;;7396162;19;20158;-78
2022/04/18 11:05:08;;;;;;;3.70;1.60;;;16.20;75.80;;;;;;7398521;19;20142;-78
2022/04/18 11:07:41;;;;;;;4.00;1.70;;;16.40;75.70;;;;;;7391450;19;20198;-78
2022/04/18 11:10:21;;;;;;;2.47;2.00;;;16.60;75.20;;;;;;7390824;19;20177;-76
2022/04/18 11:12:47;;;;;;;2.67;1.98;;;16.70;75.00;;;;;;7389896;19;20131;-79
2022/04/18 11:15:13;;;;;;;2.15;1.63;;;16.30;75.40;;;;;;7391845;19;20848;-76
2022/04/18 11:17:41;;;;;;;2.20;1.63;;;16.50;75.00;;;;;;7389025;19;20673;-77
2022/04/18 11:20:31;;;;;;;2.08;1.60;;;16.40;74.90;;;;;;7391359;19;20248;-78
2022/04/18 11:23:20;;;;;;;3.15;2.10;;;16.40;75.30;;;;;;7397002;19;20561;-78
2022/04/18 11:26:03;;;;;;;2.80;1.92;;;16.40;75.90;;;;;;7389967;19;20202;-79
2022/04/18 11:28:41;;;;;;;3.88;1.88;;;16.50;76.30;;;;;;7389931;19;20186;-78
2022/04/18 11:31:17;;;;;;;2.38;1.45;;;16.80;74.40;;;;;;7391705;19;20271;-77
2022/04/18 11:33:44;;;;;;;2.83;1.92;;;16.70;74.10;;;;;;7390751;19;20144;-78
2022/04/18 11:36:11;;;;;;;2.28;1.50;;;16.70;74.20;;;;;;7390229;19;20247;-78
2022/04/18 11:38:37;;;;;;;3.17;2.40;;;16.60;73.60;;;;;;7391646;19;20161;-77
2022/04/18 11:41:14;;;;;;;2.38;1.70;;;16.60;74.20;;;;;;7393566;19;20218;-77
2022/04/18 11:43:40;;;;;;;1.90;1.45;;;16.70;73.90;;;;;;7391458;19;20138;-78
2022/04/18 11:46:11;;;;;;;2.92;1.85;;;16.80;73.90;;;;;;7392249;19;20131;-79
2022/04/18 11:48:37;;;;;;;2.05;1.65;;;16.90;73.40;;;;;;7396282;19;20127;-78
2022/04/18 11:51:03;;;;;;;2.22;1.83;;;16.90;73.40;;;;;;7394874;19;20131;-78
2022/04/18 11:53:34;;;;;;;1.98;1.58;;;16.90;73.30;;;;;;7391792;19;20230;-79
2022/04/18 11:56:05;;;;;;;2.55;1.67;;;16.90;72.80;;;;;;7390388;19;20142;-78
2022/04/18 11:58:36;;;;;;;2.58;1.67;;;17.00;72.90;;;;;;7389534;19;20166;-78
2022/04/18 12:06:45;;;;;;;2.38;1.70;;;17.00;72.10;;;;;;7390053;19;20151;-77
2022/04/18 12:09:13;;;;;;;2.08;1.30;;;17.00;72.30;;;;;;7388854;19;20495;-77
2022/04/18 12:11:40;;;;;;;2.40;1.70;;;17.10;73.00;;;;;;7392545;19;20783;-77
2022/04/18 12:14:05;;;;;;;3.28;1.90;;;17.30;72.30;;;;;;7390790;19;20143;-78
2022/04/18 12:16:39;;;;;;;4.32;1.60;;;17.40;71.90;;;;;;7387608;19;20490;-79
2022/04/18 12:19:06;;;;;;;2.65;2.00;;;17.20;71.60;;;;;;7389471;19;20191;-78
2022/04/18 12:21:35;;;;;;;2.00;1.50;;;17.40;73.40;;;;;;7387793;19;20166;-79
2022/04/18 12:24:02;;;;;;;4.00;2.08;;;17.60;72.40;;;;;;7395156;19;20155;-78
2022/04/18 12:26:30;;;;;;;2.92;1.92;;;17.70;71.90;;;;;;7400040;19;20154;-77
2022/04/18 12:29:06;;;;;;;2.63;1.70;;;17.90;70.70;;;;;;7396206;19;20536;-78
2022/04/18 12:31:37;;;;;;;1.80;1.60;;;17.80;71.00;;;;;;7396010;19;20647;-78
2022/04/18 12:34:03;;;;;;;2.50;1.65;;;17.80;71.00;;;;;;7397155;19;20163;-77
2022/04/18 12:36:35;;;;;;;2.15;1.52;;;17.80;70.30;;;;;;7403553;19;20151;-79
2022/04/18 12:39:05;;;;;;;1.50;1.23;;;17.70;71.00;;;;;;7396953;19;20206;-78
2022/04/18 12:41:31;;;;;;;2.10;1.27;;;17.80;70.60;;;;;;7396947;19;20229;-77
2022/04/18 12:43:57;;;;;;;2.25;1.65;;;17.80;70.40;;;;;;7396495;19;20171;-77
2022/04/18 12:46:27;;;;;;;2.00;1.48;;;17.70;70.70;;;;;;7394523;19;20189;-76
2022/04/18 12:48:53;;;;;;;1.65;1.30;;;17.80;70.90;;;;;;7395551;19;20161;-77
2022/04/18 12:51:35;;;;;;;3.50;1.70;;;17.90;70.70;;;;;;7398072;19;20142;-79
2022/04/18 12:54:01;;;;;;;1.80;1.40;;;17.90;70.00;;;;;;7398700;19;20218;-77
2022/04/18 12:56:29;;;;;;;2.55;1.52;;;17.80;69.50;;;;;;7405603;19;20143;-78
2022/04/18 12:58:55;;;;;;;1.48;1.30;;;18.00;69.50;;;;;;7399572;19;20135;-79
2022/04/18 13:01:25;;;;;;;2.40;1.80;;;18.10;69.20;;;;;;7398756;19;20135;-78
2022/04/18 13:03:56;;;;;;;1.88;1.50;;;18.00;70.60;;;;;;7395726;19;20621;-78
2022/04/18 13:06:28;;;;;;;2.80;1.67;;;18.20;69.70;;;;;;7396692;19;20210;-78
2022/04/18 13:09:02;;;;;;;2.30;1.33;;;18.30;69.10;;;;;;7399207;19;20134;-78
2022/04/18 13:11:45;;;;;;;2.92;1.30;;;18.30;68.30;;;;;;7394253;19;20138;-78
2022/04/18 13:14:12;;;;;;;1.65;1.38;;;18.30;69.00;;;;;;7396860;19;20174;-79
2022/04/18 13:16:40;;;;;;;1.92;1.60;;;18.30;69.20;;;;;;7400060;19;20139;-79
2022/04/18 13:19:16;;;;;;;3.28;1.90;;;18.10;69.20;;;;;;7402650;19;20471;-79
2022/04/18 13:21:43;;;;;;;1.75;1.33;;;18.10;69.10;;;;;;7395659;19;20145;-79
2022/04/18 13:24:10;;;;;;;2.75;1.50;;;18.20;69.00;;;;;;7398115;19;20270;-79